• Join FlightAware (Why Join?)
  • Login
  • US Flag 
07:03AM EDT


 

Airport Tracker/Info


-or-


 

Live Flight TrackerFlight Track Log ✈ UAL235 ✈ 24-Jun-2013 ✈ PHNL - KSFO

Flight Track Log - Related Links

Times and Time Zones

All times are in EDT time to prevent confusion due to time zone crossing. See the UAL235 flight status page for this flight to view local times or setup timezone preferences in your user account.

Time Position Orientation Groundspeed Altitude Reporting Facility
EDT Latitude Longitude Course Direction KTS MPH feet Rate Location/Type
05:16AM 21.1580 -157.2654 105° East  Level FlightAware Approximate
05:17AM 21.1509 -157.1403 54° Northeast  Level FlightAware Approximate
05:17AM 21.2333 -157.5500 51° Northeast 350 403 11,200  Level Honolulu Center
05:18AM 21.2324 -157.0378 48° Northeast  Level FlightAware Approximate
05:19AM 21.3077 -156.9301 54° Northeast  Level FlightAware Approximate
05:19AM 21.3167 -157.3333 68° East 380 437 16,000  Level Honolulu Center
05:20AM 21.3859 -156.8248 47° Northeast  Level FlightAware Approximate
05:21AM 21.4681 -156.7229 54° Northeast  Level FlightAware Approximate
05:22AM 21.5457 -156.6168 51° Northeast  Level FlightAware Approximate
05:22AM 21.5167 -157.0333 54° Northeast 410 472 20,800  Level Honolulu Center
05:23AM 21.6190 -156.5073 57° Northeast  Level FlightAware Approximate
05:23AM 21.5667 -156.9333 62° Northeast 420 483 22,200  Level Honolulu Center
05:24AM 21.6932 -156.4040 50° Northeast  Level FlightAware Approximate
05:24AM 21.6333 -156.8333 54° Northeast 430 495 23,500  Level Honolulu Center
05:25AM 21.7739 -156.3003 50° Northeast  Level FlightAware Approximate
05:25AM 21.7000 -156.7333 54° Northeast 450 518 24,900  Level Honolulu Center
05:26AM 21.8534 -156.1955 51° Northeast  Level FlightAware Approximate
05:26AM 21.7667 -156.6167 58° Northeast 450 518 26,200  Level Honolulu Center
05:27AM 21.9324 -156.0902 51° Northeast  Level FlightAware Approximate
05:27AM 21.8500 -156.5167 48° Northeast 460 529 27,500  Level Honolulu Center
05:28AM 21.9167 -156.4000 58° Northeast 460 529 28,500 1,080 Climbing Honolulu Center
05:29AM 22.0000 -156.2833 52° Northeast 470 541 29,700 1,140 Climbing Honolulu Center
05:30AM 22.0667 -156.1500 62° Northeast 470 541 30,800 1,260 Climbing Honolulu Center
05:31AM 22.1333 -156.0333 58° Northeast 470 541 32,300 1,260 Climbing Honolulu Center
05:32AM 22.2167 -155.9167 52° Northeast 470 541 33,400 1,200 Climbing Honolulu Center
05:33AM 22.2833 -155.8000 58° Northeast 470 541 34,800 1,260 Climbing Honolulu Center
05:34AM 22.3667 -155.6833 52° Northeast 470 541 36,000 600 Climbing Honolulu Center
05:35AM 22.4333 -155.5667 58° Northeast 470 541 36,000  Level Honolulu Center
05:36AM 22.5000 -155.4500 58° Northeast 460 529 36,000  Level Honolulu Center
05:37AM 22.5833 -155.3333 52° Northeast 470 541 36,000  Level Honolulu Center
05:38AM 22.6500 -155.2167 58° Northeast 460 529 36,000  Level Honolulu Center
05:39AM 22.7333 -155.1000 52° Northeast 470 541 36,000  Level Honolulu Center
05:40AM 22.8000 -154.9833 58° Northeast 470 541 36,000  Level Honolulu Center
05:41AM 22.8667 -154.8667 58° Northeast 470 541 36,000  Level Honolulu Center
05:43AM 22.9729 -154.6942 56° Northeast  Level FlightAware Approximate
05:50AM 23.4377 -153.9146 57° Northeast  Level FlightAware Approximate
05:51AM 23.5037 -153.8028 57° Northeast  Level FlightAware Approximate
05:52AM 23.5697 -153.6908 57° Northeast  Level FlightAware Approximate
05:53AM 23.6355 -153.5788 57° Northeast  Level FlightAware Approximate
05:54AM 23.7013 -153.4666 57° Northeast  Level FlightAware Approximate
05:55AM 23.7651 -153.3531 61° Northeast  Level FlightAware Approximate
05:55AM 23.7833 -153.3667 57° Northeast 461 531 36,000  Level Oakland Oceanic (ODAPS)
05:56AM 23.8359 -153.2453 57° Northeast  Level FlightAware Approximate
05:57AM 23.9025 -153.1335 57° Northeast  Level FlightAware Approximate
05:58AM 23.9691 -153.0217 57° Northeast  Level FlightAware Approximate
05:59AM 24.0355 -152.9097 57° Northeast  Level FlightAware Approximate
06:00AM 24.1019 -152.7976 57° Northeast  Level FlightAware Approximate
06:01AM 24.1684 -152.6856 57° Northeast  Level FlightAware Approximate
06:02AM 24.4104 -152.3067 57° Northeast 461 531 36,000  Level FlightAware Transoceanic
06:03AM 24.4796 -152.1883 57° Northeast 461 531 36,000  Level FlightAware Transoceanic
06:04AM 24.5487 -152.0697 57° Northeast 461 531 36,000  Level FlightAware Transoceanic
06:05AM 24.6178 -151.9510 57° Northeast 461 531 36,000  Level FlightAware Transoceanic
06:06AM 24.6867 -151.8322 57° Northeast 461 531 36,000  Level FlightAware Transoceanic
06:07AM 24.7556 -151.7133 58° Northeast 461 531 36,000  Level FlightAware Transoceanic
06:08AM 24.8243 -151.5942 58° Northeast 461 531 36,000  Level FlightAware Transoceanic
06:09AM 24.8930 -151.4750 58° Northeast 461 531 36,000  Level FlightAware Transoceanic
06:10AM 24.9615 -151.3557 58° Northeast 461 531 36,000  Level FlightAware Transoceanic
06:11AM 25.0300 -151.2362 58° Northeast 461 531 36,000  Level FlightAware Transoceanic
06:12AM 25.0984 -151.1166 58° Northeast 461 531 36,000  Level FlightAware Transoceanic
06:13AM 25.1666 -150.9969 58° Northeast 461 531 36,000  Level FlightAware Transoceanic
06:14AM 25.2348 -150.8770 58° Northeast 461 531 36,000  Level FlightAware Transoceanic
06:15AM 25.3029 -150.7570 58° Northeast 461 531 36,000  Level FlightAware Transoceanic
06:16AM 25.3709 -150.6368 58° Northeast 461 531 36,000  Level FlightAware Transoceanic
06:17AM 25.4388 -150.5166 58° Northeast 461 531 36,000  Level FlightAware Transoceanic
06:18AM 25.5066 -150.3961 58° Northeast 461 531 36,000  Level FlightAware Transoceanic
06:19AM 25.5743 -150.2756 58° Northeast 461 531 36,000  Level FlightAware Transoceanic
06:20AM 25.6418 -150.1549 58° Northeast 461 531 36,000  Level FlightAware Transoceanic
06:21AM 25.7094 -150.0341 58° Northeast 461 531 36,000  Level FlightAware Transoceanic
06:22AM 25.7767 -149.9131 58° Northeast 461 531 36,000  Level FlightAware Transoceanic
06:23AM 25.8440 -149.7921 58° Northeast 461 531 36,000  Level FlightAware Transoceanic
06:24AM 25.9112 -149.6708 58° Northeast 461 531 36,000  Level FlightAware Transoceanic
06:25AM 25.9783 -149.5494 58° Northeast 461 531 36,000  Level FlightAware Transoceanic
06:26AM 26.0453 -149.4279 58° Northeast 461 531 36,000  Level FlightAware Transoceanic
06:27AM 26.1122 -149.3063 59° Northeast 461 531 36,000  Level FlightAware Transoceanic
06:28AM 26.1790 -149.1845 59° Northeast 461 531 36,000  Level FlightAware Transoceanic
06:29AM 26.2457 -149.0626 59° Northeast 461 531 36,000  Level FlightAware Transoceanic
06:30AM 26.3123 -148.9405 59° Northeast 461 531 36,000  Level FlightAware Transoceanic
06:31AM 26.3787 -148.8183 59° Northeast 461 531 36,000  Level FlightAware Transoceanic
06:32AM 26.4451 -148.6959 59° Northeast 461 531 36,000  Level FlightAware Transoceanic
06:33AM 26.5114 -148.5735 59° Northeast 461 531 36,000  Level FlightAware Transoceanic
06:34AM 26.5775 -148.4508 59° Northeast 461 531 36,000  Level FlightAware Transoceanic
06:35AM 26.6436 -148.3280 59° Northeast 461 531 36,000  Level FlightAware Transoceanic
06:36AM 26.7096 -148.2051 59° Northeast 461 531 36,000  Level FlightAware Transoceanic
06:37AM 26.7754 -148.0821 59° Northeast 461 531 36,000  Level FlightAware Transoceanic
06:38AM 26.8411 -147.9589 59° Northeast 461 531 36,000  Level FlightAware Transoceanic
06:39AM 26.9068 -147.8355 59° Northeast 461 531 36,000  Level FlightAware Transoceanic
06:40AM 26.9723 -147.7121 59° Northeast 461 531 36,000  Level FlightAware Transoceanic
06:41AM 27.0377 -147.5884 59° Northeast 461 531 36,000  Level FlightAware Transoceanic
06:42AM 27.1030 -147.4646 59° Northeast 461 531 36,000  Level FlightAware Transoceanic
06:43AM 27.1682 -147.3407 59° Northeast 461 531 36,000  Level FlightAware Transoceanic
06:44AM 27.2333 -147.2167 59° Northeast 461 531 36,000  Level FlightAware Transoceanic
06:45AM 27.2959 -147.0973 59° Northeast 461 531 36,000  Level FlightAware Transoceanic
06:45AM 27.2333 -147.2167 59° Northeast 452 520 36,000  Level Oakland Oceanic (ODAPS)
06:46AM 27.3584 -146.9778 60° Northeast 461 531 36,000  Level FlightAware Transoceanic
06:47AM 27.4207 -146.8582 60° Northeast 461 531 36,000  Level FlightAware Transoceanic
06:48AM 27.4830 -146.7385 60° Northeast 461 531 36,000  Level FlightAware Transoceanic
06:49AM 27.5451 -146.6186 60° Northeast 461 531 36,000  Level FlightAware Transoceanic
06:50AM 27.6072 -146.4986 60° Northeast 461 531 36,000  Level FlightAware Transoceanic
06:51AM 27.6691 -146.3784 60° Northeast 461 531 36,000  Level FlightAware Transoceanic
06:52AM 27.7404 -146.2396 60° Northeast 452 520 36,000  Level FlightAware Transoceanic
06:53AM 27.8034 -146.1169 60° Northeast 452 520 36,000  Level FlightAware Transoceanic
06:54AM 27.8662 -145.9940 60° Northeast 452 520 36,000  Level FlightAware Transoceanic
06:55AM 27.9289 -145.8709 60° Northeast 452 520 36,000  Level FlightAware Transoceanic
06:56AM 27.9914 -145.7477 60° Northeast 452 520 36,000  Level FlightAware Transoceanic
06:57AM 28.0539 -145.6244 60° Northeast 452 520 36,000  Level FlightAware Transoceanic
06:58AM 28.1163 -145.5009 60° Northeast 452 520 36,000  Level FlightAware Transoceanic
06:59AM 28.1785 -145.3773 60° Northeast 452 520 36,000  Level FlightAware Transoceanic
07:00AM 28.2407 -145.2536 60° Northeast 452 520 36,000  Level FlightAware Transoceanic
07:01AM 28.3027 -145.1296 60° Northeast 452 520 36,000  Level FlightAware Transoceanic
07:02AM 28.3646 -145.0056 60° Northeast 452 520 36,000  Level FlightAware Transoceanic
07:03AM 28.4264 -144.8814 61° Northeast 452 520 36,000  Level FlightAware Transoceanic
07:04AM 28.4881 -144.7570 61° Northeast 452 520 36,000  Level FlightAware Transoceanic
07:05AM 28.5497 -144.6326 61° Northeast 452 520 36,000  Level FlightAware Transoceanic
07:06AM 28.6111 -144.5079 61° Northeast 452 520 36,000  Level FlightAware Transoceanic
07:07AM 28.6725 -144.3831 61° Northeast 452 520 36,000  Level FlightAware Transoceanic
07:08AM 28.7337 -144.2582 61° Northeast 452 520 36,000  Level FlightAware Transoceanic
07:09AM 28.7948 -144.1331 61° Northeast 452 520 36,000  Level FlightAware Transoceanic
07:10AM 28.8558 -144.0079 61° Northeast 452 520 36,000  Level FlightAware Transoceanic
07:11AM 28.9167 -143.8826 61° Northeast 452 520 36,000  Level FlightAware Transoceanic
07:12AM 28.9775 -143.7571 61° Northeast 452 520 36,000  Level FlightAware Transoceanic
07:13AM 29.0381 -143.6314 61° Northeast 452 520 36,000  Level FlightAware Transoceanic
07:14AM 29.0987 -143.5056 61° Northeast 452 520 36,000  Level FlightAware Transoceanic
07:15AM 29.1591 -143.3796 61° Northeast 452 520 36,000  Level FlightAware Transoceanic
07:16AM 29.2194 -143.2535 61° Northeast 452 520 36,000  Level FlightAware Transoceanic
07:17AM 29.2796 -143.1273 61° Northeast 452 520 36,000  Level FlightAware Transoceanic
07:18AM 29.3396 -143.0009 61° Northeast 452 520 36,000  Level FlightAware Transoceanic
07:19AM 29.3996 -142.8743 62° Northeast 452 520 36,000  Level FlightAware Transoceanic
07:20AM 29.4594 -142.7476 62° Northeast 452 520 36,000  Level FlightAware Transoceanic
07:21AM 29.5191 -142.6208 62° Northeast 452 520 36,000  Level FlightAware Transoceanic
07:22AM 29.5787 -142.4938 62° Northeast 452 520 36,000  Level FlightAware Transoceanic
07:23AM 29.6382 -142.3667 62° Northeast 452 520 36,000  Level FlightAware Transoceanic
07:24AM 29.6975 -142.2393 62° Northeast 452 520 36,000  Level FlightAware Transoceanic
07:25AM 29.7567 -142.1119 62° Northeast 452 520 36,000  Level FlightAware Transoceanic
07:26AM 29.8158 -141.9843 62° Northeast 452 520 36,000  Level FlightAware Transoceanic
07:27AM 29.8748 -141.8566 62° Northeast 452 520 36,000  Level FlightAware Transoceanic
07:28AM 29.9337 -141.7287 62° Northeast 452 520 36,000  Level FlightAware Transoceanic
07:29AM 29.9924 -141.6006 62° Northeast 452 520 36,000  Level FlightAware Transoceanic
07:30AM 30.0510 -141.4724 62° Northeast 452 520 36,000  Level FlightAware Transoceanic
07:31AM 30.1095 -141.3441 62° Northeast 452 520 36,000  Level FlightAware Transoceanic
07:32AM 30.1678 -141.2155 62° Northeast 452 520 36,000  Level FlightAware Transoceanic
07:33AM 30.2261 -141.0869 62° Northeast 452 520 36,000  Level FlightAware Transoceanic
07:34AM 30.2842 -140.9581 62° Northeast 452 520 36,000  Level FlightAware Transoceanic
07:35AM 30.3421 -140.8291 63° Northeast 452 520 36,000  Level FlightAware Transoceanic
07:36AM 30.4000 -140.7000 63° Northeast 452 520 36,000  Level FlightAware Transoceanic
07:37AM 30.4590 -140.5679 63° Northeast 452 520 36,000  Level FlightAware Transoceanic
07:38AM 30.5180 -140.4357 63° Northeast 452 520 36,000  Level FlightAware Transoceanic
07:38AM 30.4000 -140.7000 63° Northeast 461 531 36,000  Level Oakland Oceanic (ODAPS)
07:39AM 30.5767 -140.3033 63° Northeast 452 520 36,000  Level FlightAware Transoceanic
07:40AM 30.6354 -140.1708 63° Northeast 452 520 36,000  Level FlightAware Transoceanic
07:41AM 30.6939 -140.0381 63° Northeast 452 520 36,000  Level FlightAware Transoceanic
07:42AM 30.7523 -139.9052 63° Northeast 452 520 36,000  Level FlightAware Transoceanic
07:43AM 30.8105 -139.7722 63° Northeast 452 520 36,000  Level FlightAware Transoceanic
07:44AM 30.8686 -139.6390 63° Northeast 461 531 36,000  Level FlightAware Transoceanic
07:45AM 30.9266 -139.5056 63° Northeast 461 531 36,000  Level FlightAware Transoceanic
07:46AM 30.9844 -139.3721 63° Northeast 461 531 36,000  Level FlightAware Transoceanic
07:47AM 31.0421 -139.2384 63° Northeast 461 531 36,000  Level FlightAware Transoceanic
07:48AM 31.0997 -139.1046 63° Northeast 461 531 36,000  Level FlightAware Transoceanic
07:49AM 31.1571 -138.9706 63° Northeast 461 531 36,000  Level FlightAware Transoceanic
07:50AM 31.2144 -138.8364 64° Northeast 461 531 36,000  Level FlightAware Transoceanic
07:51AM 31.2715 -138.7021 64° Northeast 461 531 36,000  Level FlightAware Transoceanic
07:52AM 31.3286 -138.5676 64° Northeast 461 531 36,000  Level FlightAware Transoceanic
07:53AM 31.3854 -138.4330 64° Northeast 461 531 36,000  Level FlightAware Transoceanic
07:54AM 31.4421 -138.2982 64° Northeast 461 531 36,000  Level FlightAware Transoceanic
07:55AM 31.4987 -138.1632 64° Northeast 461 531 36,000  Level FlightAware Transoceanic
07:56AM 31.5551 -138.0280 64° Northeast 461 531 36,000  Level FlightAware Transoceanic
07:57AM 31.6114 -137.8927 64° Northeast 461 531 36,000  Level FlightAware Transoceanic
07:58AM 31.6676 -137.7573 64° Northeast 461 531 36,000  Level FlightAware Transoceanic
07:59AM 31.7236 -137.6216 64° Northeast 461 531 36,000  Level FlightAware Transoceanic
08:00AM 31.7795 -137.4858 64° Northeast 461 531 36,000  Level FlightAware Transoceanic
08:01AM 31.8352 -137.3499 64° Northeast 461 531 36,000  Level FlightAware Transoceanic
08:02AM 31.8908 -137.2138 64° Northeast 461 531 36,000  Level FlightAware Transoceanic
08:03AM 31.9462 -137.0775 64° Northeast 461 531 36,000  Level FlightAware Transoceanic
08:04AM 32.0015 -136.9410 65° Northeast 461 531 36,000  Level FlightAware Transoceanic
08:05AM 32.0566 -136.8044 65° Northeast 461 531 36,000  Level FlightAware Transoceanic
08:06AM 32.1116 -136.6676 65° Northeast 461 531 36,000  Level FlightAware Transoceanic
08:07AM 32.1665 -136.5307 65° Northeast 461 531 36,000  Level FlightAware Transoceanic
08:08AM 32.2212 -136.3936 65° Northeast 461 531 36,000  Level FlightAware Transoceanic
08:09AM 32.2757 -136.2563 65° Northeast 461 531 36,000  Level FlightAware Transoceanic
08:10AM 32.3301 -136.1189 65° Northeast 461 531 36,000  Level FlightAware Transoceanic
08:11AM 32.3844 -135.9813 65° Northeast 461 531 36,000  Level FlightAware Transoceanic
08:12AM 32.4385 -135.8435 65° Northeast 461 531 36,000  Level FlightAware Transoceanic
08:13AM 32.4924 -135.7056 65° Northeast 461 531 36,000  Level FlightAware Transoceanic
08:14AM 32.5462 -135.5674 65° Northeast 461 531 36,000  Level FlightAware Transoceanic
08:15AM 32.5999 -135.4292 65° Northeast 461 531 36,000  Level FlightAware Transoceanic
08:16AM 32.6534 -135.2908 65° Northeast 461 531 36,000  Level FlightAware Transoceanic
08:17AM 32.7067 -135.1522 65° Northeast 461 531 36,000  Level FlightAware Transoceanic
08:18AM 32.7599 -135.0134 66° East 461 531 36,000  Level FlightAware Transoceanic
08:19AM 32.8129 -134.8745 66° East 461 531 36,000  Level FlightAware Transoceanic
08:20AM 32.8658 -134.7354 66° East 461 531 36,000  Level FlightAware Transoceanic
08:21AM 32.9186 -134.5961 66° East 461 531 36,000  Level FlightAware Transoceanic
08:22AM 32.9711 -134.4567 66° East 461 531 36,000  Level FlightAware Transoceanic
08:23AM 33.0236 -134.3171 66° East 461 531 36,000  Level FlightAware Transoceanic
08:24AM 33.0758 -134.1774 66° East 461 531 36,000  Level FlightAware Transoceanic
08:25AM 33.1279 -134.0374 66° East 461 531 36,000  Level FlightAware Transoceanic
08:26AM 33.1799 -133.8973 66° East 461 531 36,000  Level FlightAware Transoceanic
08:27AM 33.2317 -133.7571 66° East 461 531 36,000  Level FlightAware Transoceanic
08:28AM 33.2833 -133.6167 66° East 461 531 36,000  Level FlightAware Transoceanic
08:29AM 33.3367 -133.4707 66° East 461 531 36,000  Level FlightAware Transoceanic
08:30AM 33.3900 -133.3245 66° East 461 531 36,000  Level FlightAware Transoceanic
08:30AM 33.2833 -133.6167 66° East 490 564 36,000  Level Oakland Oceanic (ODAPS)
08:31AM 33.4430 -133.1782 67° East 461 531 36,000  Level FlightAware Transoceanic
08:32AM 33.4959 -133.0317 67° East 461 531 36,000  Level FlightAware Transoceanic
08:33AM 33.5486 -132.8850 67° East 461 531 36,000  Level FlightAware Transoceanic
08:34AM 33.6012 -132.7381 67° East 461 531 36,000  Level FlightAware Transoceanic
08:35AM 33.6536 -132.5911 67° East 461 531 36,000  Level FlightAware Transoceanic
08:36AM 33.7673 -132.2693 67° East 490 564 36,000  Level FlightAware Transoceanic
08:37AM 33.8202 -132.1187 67° East 490 564 36,000  Level FlightAware Transoceanic
08:38AM 33.8729 -131.9679 67° East 490 564 36,000  Level FlightAware Transoceanic
08:39AM 33.9254 -131.8169 67° East 490 564 36,000  Level FlightAware Transoceanic
08:40AM 33.9777 -131.6657 67° East 490 564 36,000  Level FlightAware Transoceanic
08:41AM 34.0298 -131.5143 67° East 490 564 36,000  Level FlightAware Transoceanic
08:42AM 34.0818 -131.3628 68° East 490 564 36,000  Level FlightAware Transoceanic
08:43AM 34.1336 -131.2110 68° East 490 564 36,000  Level FlightAware Transoceanic
08:44AM 34.1851 -131.0591 68° East 490 564 36,000  Level FlightAware Transoceanic
08:45AM 34.2365 -130.9070 68° East 490 564 36,000  Level FlightAware Transoceanic
08:46AM 34.2877 -130.7547 68° East 490 564 36,000  Level FlightAware Transoceanic
08:47AM 34.3387 -130.6022 68° East 490 564 36,000  Level FlightAware Transoceanic
08:48AM 34.3895 -130.4495 68° East 490 564 36,000  Level FlightAware Transoceanic
08:49AM 34.4402 -130.2966 68° East 490 564 36,000  Level FlightAware Transoceanic
08:50AM 34.4906 -130.1436 68° East 490 564 36,000  Level FlightAware Transoceanic
08:51AM 34.5409 -129.9904 68° East 490 564 36,000  Level FlightAware Transoceanic
08:52AM 34.5909 -129.8369 68° East 490 564 36,000  Level FlightAware Transoceanic
08:53AM 34.6408 -129.6833 69° East 490 564 36,000  Level FlightAware Transoceanic
08:54AM 34.6905 -129.5296 69° East 490 564 36,000  Level FlightAware Transoceanic
08:55AM 34.7400 -129.3756 69° East 490 564 36,000  Level FlightAware Transoceanic
08:56AM 34.7892 -129.2214 69° East 490 564 36,000  Level FlightAware Transoceanic
08:57AM 34.8383 -129.0671 69° East 490 564 36,000  Level FlightAware Transoceanic
08:58AM 34.8872 -128.9126 69° East 490 564 36,000  Level FlightAware Transoceanic
08:59AM 34.9359 -128.7579 69° East 490 564 36,000  Level FlightAware Transoceanic
09:00AM 34.9844 -128.6030 69° East 490 564 36,000  Level FlightAware Transoceanic
09:01AM 35.0327 -128.4479 69° East 490 564 36,000  Level FlightAware Transoceanic
09:02AM 35.0809 -128.2926 69° East 490 564 36,000  Level FlightAware Transoceanic
09:03AM 35.1288 -128.1372 69° East 490 564 36,000  Level FlightAware Transoceanic
09:04AM 35.1765 -127.9816 69° East 490 564 36,000  Level FlightAware Transoceanic
09:05AM 35.2240 -127.8258 70° East 490 564 36,000  Level FlightAware Transoceanic
09:06AM 35.2713 -127.6698 70° East 490 564 36,000  Level FlightAware Transoceanic
09:07AM 35.3184 -127.5136 70° East 490 564 36,000  Level FlightAware Transoceanic
09:08AM 35.3653 -127.3573 70° East 490 564 36,000  Level FlightAware Transoceanic
09:09AM 35.4120 -127.2008 70° East 490 564 36,000  Level FlightAware Transoceanic
09:10AM 35.4586 -127.0441 70° East 490 564 36,000  Level FlightAware Transoceanic
09:11AM 35.5049 -126.8872 70° East 490 564 36,000  Level FlightAware Transoceanic
09:12AM 35.5510 -126.7301 70° East 490 564 36,000  Level FlightAware Transoceanic
09:13AM 35.5969 -126.5728 70° East 490 564 36,000  Level FlightAware Transoceanic
09:14AM 35.6426 -126.4154 70° East 490 564 36,000  Level FlightAware Transoceanic
09:15AM 35.6880 -126.2578 70° East 490 564 36,000  Level FlightAware Transoceanic
09:16AM 35.7333 -126.1000 67° East 490 564 36,000  Level FlightAware Transoceanic
09:16AM 35.7358 -126.0908 67° East 506 582 36,000  Level Oakland Center
09:17AM 35.7841 -125.9526 67° East 490 564 36,000  Level FlightAware Transoceanic
09:17AM 35.7908 -125.9317 67° East 507 583 36,000  Level Oakland Center
09:18AM 35.8346 -125.8050 67° East 490 564 36,000  Level FlightAware Transoceanic
09:18AM 35.8547 -125.7797 63° Northeast 506 582 36,000  Level Oakland Center
09:19AM 35.8850 -125.6572 67° East 490 564 36,000  Level FlightAware Transoceanic
09:19AM 35.9297 -125.6356 57° Northeast 505 581 36,000  Level Oakland Center
09:20AM 35.9352 -125.5093 67° East 490 564 36,000  Level FlightAware Transoceanic
09:20AM 36.0064 -125.4933 56° Northeast 503 579 36,000  Level Oakland Center
09:21AM 35.9852 -125.3611 67° East 490 564 36,000  Level FlightAware Transoceanic
09:21AM 36.0753 -125.3436 60° Northeast 502 578 36,000  Level Oakland Center
09:22AM 36.1464 -125.1961 59° Northeast 500 575 36,000 -360 Level Oakland Center
09:23AM 36.2183 -125.0494 59° Northeast 500 575 35,300 -1,740 Descending Oakland Center
09:24AM 36.2911 -124.9006 59° Northeast 503 579 32,600 -2,880 Descending Oakland Center
09:25AM 36.3664 -124.7492 58° Northeast 513 590 29,500 -2,520 Descending Oakland Center
09:26AM 36.4383 -124.5997 59° Northeast 510 587 27,600 -2,040 Descending Oakland Center
09:27AM 36.5089 -124.4569 58° Northeast 493 567 25,400 -2,220 Descending Oakland Center
09:28AM 36.5767 -124.3158 59° Northeast 480 552 23,100 -2,220 Descending Oakland Center
09:29AM 36.6425 -124.1789 59° Northeast 469 540 21,000 -2,040 Descending Oakland Center
09:30AM 36.7058 -124.0456 59° Northeast 454 522 19,000 -1,920 Descending Oakland Center
09:31AM 36.7667 -123.9178 59° Northeast 437 503 17,100 -2,040 Descending Oakland Center
09:32AM 36.8381 -123.7686 59° Northeast 420 483 15,000 -2,040 Descending Oakland Center
09:33AM 36.8933 -123.6500 60° Northeast 400 460 13,100 -1,440 Descending Oakland Center
09:34AM 36.9469 -123.5358 60° Northeast 386 444 12,100 -900 Descending Oakland Center
09:35AM 36.9933 -123.4358 60° Northeast 339 390 11,300 -1,140 Descending Oakland Center
09:36AM 37.0378 -123.3378 60° Northeast 325 374 9,900 -1,380 Descending Oakland Center
09:37AM 37.0825 -123.2417 60° Northeast 322 371 8,600 -960 Descending Oakland Center
09:38AM 37.1258 -123.1489 60° Northeast 313 360 8,000 -300 Descending Oakland Center
09:39AM 37.1706 -123.0553 59° Northeast 315 362 8,000  Level Oakland Center
09:40AM 37.2131 -122.9614 60° Northeast 314 361 8,000  Level Oakland Center
09:41AM 37.2583 -122.8706 58° Northeast 317 365 8,000  Level Oakland Center
09:42AM 37.3164 -122.8014 43° Northeast 311 358 8,000  Level Oakland Center
09:43AM 37.3047 -122.7039 99° East 285 328 8,000 -360 Level Oakland Center
09:44AM 37.2892 -122.6178 103° East 257 296 7,300 -840 Descending Oakland Center
09:45AM 37.2758 -122.5331 101° East 253 291 6,300 -660 Descending Oakland Center
09:46AM 37.3411 -122.5261 North 244 281 6,000 -180 Descending Oakland Center
09:47AM 37.3961 -122.5575 336° Northwest 259 298 6,000  Level Oakland Center
09:49AM 37.4625 -122.5322 17° North 253 291 6,000  Level Oakland Center
09:50AM 37.5317 -122.5158 11° North 253 291 6,000  Level Oakland Center
09:51AM 37.6003 -122.4986 11° North 253 291 6,000  Level Oakland Center
09:51AM 37.6500 -122.4833 14° North 250 288 6,000  Level Northern Cal TRACON
09:52AM 37.7167 -122.4500 22° Northeast 253 291 6,000  Level Northern Cal TRACON
09:53AM 37.7833 -122.4167 22° Northeast 252 290 6,000  Level Northern Cal TRACON
09:54AM 37.8333 -122.3667 38° Northeast 229 264 6,000  Level Northern Cal TRACON
09:55AM 37.8833 -122.3333 28° Northeast 225 259 6,000  Level Northern Cal TRACON
09:56AM 37.9167 -122.3000 38° Northeast 231 266 6,000  Level Northern Cal TRACON
09:57AM 37.9217 -122.2614 81° East 237 273 6,000 -540 Level Oakland Center
09:58AM 37.8728 -122.2169 144° Southeast 193 222 5,200 -840 Descending Oakland Center
09:59AM 37.8286 -122.2294 193° South 168 193 4,400 -840 Descending Oakland Center
10:00AM 37.7925 -122.2547 209° Southwest 152 175 3,600 -840 Descending Oakland Center
10:01AM 37.7569 -122.2783 208° Southwest 146 168 2,800 -840 Descending Oakland Center